Mayburn Corners, Ohio
Current Conditions -  °F | °C
As of 5:51 PM on Thursday 18 Dec 2014 (Local Time) from KYNG Reporting Station
Light Snow Light Snow  
Wind Chill: 19°   Ceiling: 1500
Heat Index: 28°   Visibility: 9mi
Dew Point: 23°   Wind: 9mph
Humidity: 81%   Direction: 250°WSW
Pressure: 30.14"   Gusts: NA
Location:  41.4314°N, 80.6629°W
Report Text: KYNG 182251Z 25008KT 9SM -SN OVC015 M02/M05 A3014 RMK AO2 SLP220 P0000 T10221050
Loading
Personal Weather Stations






























Interactive Weather Map New forecast layout! Learn more

10-Day Weather Forecast

Advertisements
Track Severe Weather on mobile